Time;durP1;ratioP1;P1;durP2;ratioP2;P2;SDS_P1;SDS_P2;PMS_P1;PMS_P2;Temp;Humidity;BMP_temperature;BMP_pressure;BME280_temperature;BME280_humidity;BME280_pressure;Samples;Min_cycle;Max_cycle;Signal;HPM_P1;HPM_P2
2022/12/08 00:02:06;;;;;;;3.62;2.20;;;;;;;3.31;62.66;99853.81;4470785;31;33007;-84
2022/12/08 00:09:20;;;;;;;1.08;1.02;;;;;;;3.30;62.38;99865.16;4484344;31;33188;-84
2022/12/08 00:10:11;;;;;;;0.88;0.88;;;;;;;3.26;62.80;99854.75;4492060;31;34381;-84
2022/12/08 00:12:58;;;;;;;2.08;1.95;;;;;;;3.22;63.05;99851.31;4472522;31;32380;-84
2022/12/08 00:15:26;;;;;;;2.10;1.65;;;;;;;3.18;63.49;99862.72;4480746;31;34549;-84
2022/12/08 00:17:54;;;;;;;1.17;0.60;;;;;;;3.43;62.53;99846.72;4465729;31;335515;-84
2022/12/08 00:20:22;;;;;;;0.22;0.22;;;;;;;3.11;63.65;99858.44;4479690;31;34366;-84
2022/12/08 00:22:50;;;;;;;1.35;1.25;;;;;;;3.36;62.99;99851.13;4470333;31;32332;-84
2022/12/08 00:25:19;;;;;;;0.57;0.57;;;;;;;3.41;62.66;99853.69;4484458;31;33920;-83
2022/12/08 00:27:46;;;;;;;5.35;1.23;;;;;;;3.55;62.29;99851.75;4466623;31;33581;-84
2022/12/08 00:30:15;;;;;;;0.28;0.28;;;;;;;3.49;62.51;99854.47;4489329;31;33440;-84
2022/12/08 00:32:43;;;;;;;1.30;1.20;;;;;;;3.57;62.47;99856.06;4459864;31;31613;-84
2022/12/08 00:35:11;;;;;;;2.12;2.00;;;;;;;3.34;63.27;99859.00;4481658;31;33025;-84
2022/12/08 00:37:39;;;;;;;0.50;0.50;;;;;;;3.45;62.98;99858.00;4468751;31;33452;-84
2022/12/08 00:40:08;;;;;;;7.00;2.55;;;;;;;3.34;62.87;99864.22;4487042;31;33426;-84
2022/12/08 00:42:36;;;;;;;1.17;1.08;;;;;;;3.25;63.20;99861.72;4470770;31;33163;-84
2022/12/08 00:45:04;;;;;;;2.17;1.92;;;;;;;3.29;63.10;99866.03;4469716;31;34369;-84
2022/12/08 00:47:32;;;;;;;0.45;0.45;;;;;;;3.56;62.66;99866.53;4455509;31;34250;-84
2022/12/08 00:50:00;;;;;;;2.45;1.02;;;;;;;3.63;62.26;99859.47;4486812;31;34373;-84
2022/12/08 00:52:28;;;;;;;0.90;0.82;;;;;;;3.59;62.37;99863.87;4469916;31;32420;-84
2022/12/08 00:54:56;;;;;;;0.37;0.37;;;;;;;3.46;63.12;99862.31;4463659;31;33138;-84
2022/12/08 00:57:24;;;;;;;0.68;0.68;;;;;;;3.21;63.98;99860.03;4487419;31;34722;-84
2022/12/08 00:59:52;;;;;;;3.20;3.00;;;;;;;3.40;63.82;99862.41;4468970;31;32684;-85
2022/12/08 01:02:20;;;;;;;2.90;2.50;;;;;;;3.52;63.12;99862.25;4480258;31;33022;-85
2022/12/08 01:04:48;;;;;;;1.35;1.08;;;;;;;3.57;62.82;99856.06;4483377;31;32815;-85
2022/12/08 01:07:17;;;;;;;0.77;0.77;;;;;;;3.63;62.55;99868.19;4471719;31;33951;-85
2022/12/08 01:09:46;;;;;;;0.08;0.08;;;;;;;3.59;62.43;99861.28;4470623;31;32381;-85
2022/12/08 01:12:14;;;;;;;2.15;1.90;;;;;;;3.44;62.58;99861.50;4470658;31;33137;-84
2022/12/08 01:14:42;;;;;;;2.70;2.50;;;;;;;3.46;62.55;99857.97;4483223;31;33852;-83
2022/12/08 01:17:10;;;;;;;1.02;1.02;;;;;;;3.48;62.48;99860.56;4473459;31;34792;-83
2022/12/08 01:19:38;;;;;;;0.20;0.20;;;;;;;3.56;62.05;99858.69;4465564;31;34062;-83
2022/12/08 01:22:06;;;;;;;1.05;0.82;;;;;;;3.58;61.94;99867.38;4479165;31;32928;-83
2022/12/08 01:24:35;;;;;;;1.05;0.95;;;;;;;3.38;62.16;99856.37;4472794;31;33913;-83
2022/12/08 01:27:04;;;;;;;0.20;0.20;;;;;;;3.33;62.61;99867.72;4485286;31;34336;-83
2022/12/08 01:29:33;;;;;;;0.95;0.90;;;;;;;3.40;62.42;99872.84;4485852;31;33721;-84
2022/12/08 01:32:01;;;;;;;0.17;0.17;;;;;;;3.41;62.32;99859.78;4492029;31;33158;-84
2022/12/08 01:34:28;;;;;;;0.20;0.20;;;;;;;3.32;62.12;99860.78;4465974;31;32822;-84
2022/12/08 01:36:56;;;;;;;0.73;0.73;;;;;;;3.39;62.06;99860.69;4485216;31;34795;-84
2022/12/08 01:39:24;;;;;;;0.55;0.55;;;;;;;3.38;61.83;99865.06;4487080;31;34085;-84
2022/12/08 01:41:52;;;;;;;1.02;0.98;;;;;;;3.26;62.10;99850.41;4472595;31;33979;-84
2022/12/08 01:44:20;;;;;;;0.68;0.68;;;;;;;3.18;62.62;99860.09;4478149;31;33040;-84
2022/12/08 01:46:48;;;;;;;0.52;0.52;;;;;;;3.27;62.35;99857.34;4485597;31;33919;-84
2022/12/08 01:49:24;;;;;;;0.20;0.20;;;;;;;3.36;61.78;99847.66;4493547;31;34451;-83
2022/12/08 01:52:14;;;;;;;0.10;0.10;;;;;;;3.29;61.40;99850.38;4485353;31;32927;-83
2022/12/08 01:54:53;;;;;;;0.80;0.80;;;;;;;3.20;61.29;99842.66;4492056;31;33659;-83
2022/12/08 01:57:38;;;;;;;0.73;0.73;;;;;;;3.16;61.12;99848.81;4486046;31;34776;-83
2022/12/08 02:00:11;;;;;;;0.00;0.00;;;;;;;3.11;61.13;99845.38;4478894;31;32012;-83
2022/12/08 02:02:47;;;;;;;1.12;1.12;;;;;;;2.98;61.90;99849.88;4470797;31;33742;-83
2022/12/08 02:05:15;;;;;;;0.00;0.00;;;;;;;2.97;61.65;99845.56;4485671;31;33831;-83
2022/12/08 02:07:43;;;;;;;0.77;0.77;;;;;;;3.01;61.39;99841.19;4485225;31;36355;-83
2022/12/08 02:10:16;;;;;;;1.08;0.65;;;;;;;2.89;61.37;99833.50;4485044;31;34358;-83
2022/12/08 02:12:43;;;;;;;0.62;0.62;;;;;;;2.90;61.57;99837.84;4489390;31;33107;-83
2022/12/08 02:15:11;;;;;;;1.52;1.42;;;;;;;2.98;61.66;99828.16;4471222;31;32848;-83
2022/12/08 02:17:56;;;;;;;0.10;0.10;;;;;;;3.09;61.00;99823.69;4486992;31;34055;-83
2022/12/08 02:20:37;;;;;;;1.17;1.15;;;;;;;3.05;60.78;99829.81;4484962;31;34424;-84
2022/12/08 02:23:26;;;;;;;1.80;1.70;;;;;;;3.05;60.77;99828.06;4484873;31;33345;-84
2022/12/08 02:26:23;;;;;;;0.47;0.47;;;;;;;3.10;60.71;99832.38;4494022;31;33198;-84
2022/12/08 02:28:56;;;;;;;0.35;0.35;;;;;;;3.11;60.47;99824.53;4483505;31;33577;-85
2022/12/08 02:31:48;;;;;;;0.22;0.22;;;;;;;2.99;61.17;99824.66;4492518;31;34149;-85
2022/12/08 02:34:36;;;;;;;1.20;1.20;;;;;;;2.93;61.27;99825.59;4470969;31;33542;-85
2022/12/08 02:37:21;;;;;;;0.37;0.37;;;;;;;2.85;61.43;99827.47;4489007;31;34465;-84
2022/12/08 02:40:01;;;;;;;0.62;0.62;;;;;;;2.92;61.71;99823.03;4477990;31;34758;-85
2022/12/08 02:42:36;;;;;;;0.35;0.35;;;;;;;2.95;61.70;99815.19;4475052;31;33496;-86
2022/12/08 02:45:14;;;;;;;0.10;0.10;;;;;;;3.01;61.62;99817.69;4470558;31;33211;-86
2022/12/08 02:47:42;;;;;;;0.20;0.20;;;;;;;2.97;61.74;99818.63;4461270;31;32639;-86
2022/12/08 02:50:11;;;;;;;0.37;0.37;;;;;;;2.98;61.60;99815.97;4470867;31;33356;-84
2022/12/08 02:52:43;;;;;;;0.20;0.20;;;;;;;2.95;61.61;99815.19;4473220;31;32990;-84
2022/12/08 02:55:28;;;;;;;0.32;0.32;;;;;;;2.88;62.10;99814.38;4478818;31;33459;-84
2022/12/08 02:58:15;;;;;;;0.60;0.60;;;;;;;2.97;62.29;99810.78;4477201;31;32838;-83
2022/12/08 03:01:00;;;;;;;0.80;0.80;;;;;;;2.95;62.48;99802.13;4488592;31;32947;-84
2022/12/08 03:03:37;;;;;;;0.57;0.45;;;;;;;2.99;62.47;99803.78;4471888;31;33773;-83
2022/12/08 03:06:15;;;;;;;1.30;1.20;;;;;;;3.10;62.15;99796.72;4485815;31;33787;-84
2022/12/08 03:09:00;;;;;;;0.13;0.13;;;;;;;3.15;61.78;99804.47;4495085;31;33792;-84
2022/12/08 03:11:53;;;;;;;0.47;0.47;;;;;;;3.15;62.17;99809.69;4459579;31;33380;-84
2022/12/08 03:14:21;;;;;;;0.57;0.57;;;;;;;2.92;63.29;99802.16;4470500;31;33110;-83
2022/12/08 03:16:52;;;;;;;1.40;1.30;;;;;;;3.47;61.25;99799.66;4484423;31;34761;-83
2022/12/08 03:19:24;;;;;;;0.22;0.22;;;;;;;3.23;61.93;99808.72;4478165;31;34370;-84
2022/12/08 03:22:04;;;;;;;0.20;0.20;;;;;;;3.06;62.62;99805.47;4468412;31;34317;-85
2022/12/08 03:24:37;;;;;;;0.62;0.62;;;;;;;3.06;62.92;99800.25;4467622;31;34301;-85
2022/12/08 03:27:11;;;;;;;0.75;0.75;;;;;;;3.22;62.58;99806.09;4475154;31;33414;-84
2022/12/08 03:29:38;;;;;;;1.08;1.00;;;;;;;3.05;63.17;99798.53;4484925;31;34233;-84
2022/12/08 03:32:13;;;;;;;0.37;0.37;;;;;;;3.15;63.29;99800.12;4484683;31;33617;-84
2022/12/08 03:34:43;;;;;;;0.20;0.20;;;;;;;3.31;62.87;99791.19;4489002;31;34470;-85
2022/12/08 03:37:12;;;;;;;0.57;0.57;;;;;;;3.24;62.95;99804.34;4462263;31;33091;-85
2022/12/08 03:39:40;;;;;;;2.92;2.35;;;;;;;3.28;63.06;99801.69;4486960;31;33508;-85
2022/12/08 03:42:08;;;;;;;0.77;0.77;;;;;;;3.35;63.11;99789.41;4483695;31;35286;-83
2022/12/08 03:44:36;;;;;;;1.55;0.93;;;;;;;3.41;62.93;99785.81;4471281;31;32837;-83
2022/12/08 03:47:05;;;;;;;0.37;0.37;;;;;;;3.37;63.02;99787.66;4494577;31;32938;-83
2022/12/08 03:49:33;;;;;;;0.32;0.32;;;;;;;3.34;63.34;99791.16;4465541;31;33748;-83
2022/12/08 03:52:01;;;;;;;0.10;0.10;;;;;;;3.19;63.68;99791.38;4469502;31;32986;-84
2022/12/08 03:54:29;;;;;;;0.00;0.00;;;;;;;3.43;63.45;99790.16;4472497;31;33561;-84
2022/12/08 03:56:56;;;;;;;0.95;0.95;;;;;;;3.53;62.99;99785.66;4472361;31;33117;-84
2022/12/08 03:59:24;;;;;;;0.93;0.93;;;;;;;3.53;63.15;99785.66;4473211;31;34144;-83
2022/12/08 04:01:52;;;;;;;1.75;1.35;;;;;;;3.57;63.00;99782.97;4480949;31;34040;-83
2022/12/08 04:04:20;;;;;;;0.47;0.47;;;;;;;3.53;63.27;99780.44;4477638;31;34095;-83
2022/12/08 04:06:48;;;;;;;2.22;0.45;;;;;;;3.51;63.57;99776.97;4476883;31;31981;-84
2022/12/08 04:09:17;;;;;;;0.65;0.65;;;;;;;3.66;63.47;99771.53;4469208;31;33169;-84
2022/12/08 04:11:45;;;;;;;0.00;0.00;;;;;;;3.64;63.55;99773.28;4461897;31;33352;-83
2022/12/08 04:14:14;;;;;;;1.85;1.55;;;;;;;3.69;63.38;99768.84;4474779;31;33200;-83
2022/12/08 04:16:41;;;;;;;0.77;0.77;;;;;;;3.71;63.44;99763.63;4457885;31;32751;-84
2022/12/08 04:19:09;;;;;;;1.80;1.65;;;;;;;3.58;63.86;99765.56;4473521;31;33771;-84
2022/12/08 04:21:37;;;;;;;8.13;1.75;;;;;;;3.68;64.05;99764.53;4471153;31;33961;-84
2022/12/08 04:24:06;;;;;;;0.95;0.95;;;;;;;3.61;64.39;99762.91;4475106;31;32713;-83
2022/12/08 04:26:34;;;;;;;0.43;0.43;;;;;;;3.63;64.36;99761.12;4483741;31;34052;-83
2022/12/08 04:29:02;;;;;;;0.05;0.05;;;;;;;3.57;64.64;99763.84;4464774;31;33621;-83
2022/12/08 04:31:31;;;;;;;0.32;0.32;;;;;;;3.87;64.01;99764.22;4475398;31;33364;-83
2022/12/08 04:34:00;;;;;;;0.77;0.77;;;;;;;4.12;62.39;99766.34;4475693;31;34384;-84
2022/12/08 04:36:27;;;;;;;0.30;0.30;;;;;;;3.74;63.99;99769.62;4489002;31;33432;-84
2022/12/08 04:38:55;;;;;;;0.32;0.32;;;;;;;3.81;63.89;99760.81;4492372;31;34496;-83
2022/12/08 04:41:23;;;;;;;0.82;0.77;;;;;;;3.79;63.99;99761.72;4472588;31;33915;-84
2022/12/08 04:43:51;;;;;;;0.20;0.20;;;;;;;3.71;64.08;99759.25;4484703;31;33837;-84
2022/12/08 04:46:18;;;;;;;1.08;1.08;;;;;;;3.97;63.52;99765.78;4468841;31;34100;-84
2022/12/08 04:48:46;;;;;;;2.53;2.10;;;;;;;3.93;63.60;99764.09;4471261;31;34572;-84
2022/12/08 04:51:16;;;;;;;1.65;1.30;;;;;;;3.95;63.77;99762.34;4470318;31;34000;-85
2022/12/08 04:53:45;;;;;;;0.60;0.55;;;;;;;3.92;64.06;99765.00;4466919;31;33752;-85
2022/12/08 04:56:16;;;;;;;0.80;0.80;;;;;;;4.11;63.53;99766.41;4485749;31;34068;-83
2022/12/08 04:58:45;;;;;;;0.60;0.60;;;;;;;3.96;63.91;99759.69;4471834;31;32591;-83
2022/12/08 05:01:13;;;;;;;3.65;2.35;;;;;;;3.81;64.40;99763.44;4468448;31;34022;-82
2022/12/08 05:03:45;;;;;;;0.60;0.60;;;;;;;4.03;64.14;99770.88;4472802;31;34350;-83
2022/12/08 05:06:14;;;;;;;0.20;0.20;;;;;;;4.04;63.85;99762.19;4472807;31;33638;-83
2022/12/08 05:08:43;;;;;;;0.17;0.17;;;;;;;3.94;63.95;99761.47;4485839;31;33473;-83
2022/12/08 05:11:12;;;;;;;0.00;0.00;;;;;;;4.14;63.65;99768.97;4479940;31;32716;-83
2022/12/08 05:13:40;;;;;;;1.37;1.27;;;;;;;4.14;63.46;99768.97;4477050;31;32258;-83
2022/12/08 05:16:10;;;;;;;2.17;1.70;;;;;;;4.07;63.92;99762.97;4496597;31;33732;-83
2022/12/08 05:18:40;;;;;;;1.35;1.25;;;;;;;4.04;63.99;99772.63;4478145;31;33417;-83
2022/12/08 05:21:08;;;;;;;0.95;0.90;;;;;;;4.12;63.75;99765.50;4464829;31;33620;-83
2022/12/08 05:23:37;;;;;;;0.15;0.15;;;;;;;4.18;63.60;99762.78;4465601;31;32515;-83
2022/12/08 05:26:05;;;;;;;4.43;1.70;;;;;;;4.04;64.16;99756.97;4488860;31;33950;-83
2022/12/08 05:28:38;;;;;;;0.30;0.30;;;;;;;4.12;63.90;99765.50;4478171;31;34004;-83
2022/12/08 05:31:11;;;;;;;1.10;0.73;;;;;;;4.04;64.22;99754.34;4483229;31;34046;-83
2022/12/08 05:33:39;;;;;;;0.40;0.40;;;;;;;3.97;64.52;99750.97;4482470;31;33398;-83
2022/12/08 05:36:14;;;;;;;1.35;1.25;;;;;;;4.09;64.35;99739.44;4490048;31;32591;-84
2022/12/08 05:38:43;;;;;;;3.30;0.80;;;;;;;4.08;64.29;99742.91;4485260;31;33857;-83
2022/12/08 05:41:17;;;;;;;5.05;1.65;;;;;;;3.98;64.53;99741.37;4486935;31;33706;-83
2022/12/08 05:43:46;;;;;;;1.58;1.48;;;;;;;3.94;64.73;99750.16;4470878;31;34432;-83
2022/12/08 05:46:15;;;;;;;2.55;0.80;;;;;;;4.04;64.51;99747.38;4481075;31;33343;-84
2022/12/08 05:48:44;;;;;;;1.52;0.88;;;;;;;4.01;64.36;99751.78;4474125;31;34301;-84
2022/12/08 05:51:19;;;;;;;0.32;0.32;;;;;;;4.06;64.43;99758.63;4484562;31;33966;-84
2022/12/08 05:53:48;;;;;;;0.10;0.10;;;;;;;4.08;64.32;99748.16;4471432;31;33100;-84
2022/12/08 05:56:19;;;;;;;1.20;0.93;;;;;;;4.25;63.96;99750.47;4486381;31;33972;-83
2022/12/08 05:58:53;;;;;;;2.20;1.65;;;;;;;4.25;64.02;99745.25;4469231;31;32864;-84
2022/12/08 06:01:24;;;;;;;0.30;0.30;;;;;;;4.36;63.36;99749.34;4455216;31;33385;-84
2022/12/08 06:03:56;;;;;;;1.05;1.05;;;;;;;4.35;63.52;99758.09;4481018;31;32419;-84
2022/12/08 06:06:28;;;;;;;1.33;1.10;;;;;;;4.32;63.58;99752.94;4471897;31;33772;-84
2022/12/08 06:09:05;;;;;;;0.10;0.10;;;;;;;4.27;64.13;99751.28;4483151;31;33914;-84
2022/12/08 06:11:35;;;;;;;0.62;0.62;;;;;;;4.33;63.91;99744.22;4484767;31;33805;-83
2022/12/08 06:14:03;;;;;;;0.70;0.70;;;;;;;4.41;63.58;99751.03;4481078;31;34112;-83
2022/12/08 06:16:31;;;;;;;1.75;1.65;;;;;;;4.40;63.69;99757.16;4468826;31;33422;-83
2022/12/08 06:19:01;;;;;;;2.40;1.67;;;;;;;4.29;63.95;99753.00;4466713;31;34019;-85
2022/12/08 06:21:29;;;;;;;0.40;0.40;;;;;;;4.43;63.74;99750.13;4454408;31;33259;-85
2022/12/08 06:23:57;;;;;;;0.25;0.25;;;;;;;4.49;63.46;99755.22;4482096;31;34572;-84
2022/12/08 06:26:25;;;;;;;1.75;1.65;;;;;;;4.30;64.20;99766.91;4470542;31;30432;-84
2022/12/08 06:28:54;;;;;;;0.62;0.62;;;;;;;4.36;64.00;99762.44;4470679;31;35183;-85
2022/12/08 06:31:25;;;;;;;0.80;0.80;;;;;;;4.37;64.12;99758.94;4468743;31;34049;-85
2022/12/08 06:33:56;;;;;;;1.55;1.30;;;;;;;4.34;64.23;99764.22;4453573;31;32109;-85
2022/12/08 06:36:28;;;;;;;0.80;0.80;;;;;;;4.28;64.49;99772.19;4463134;31;32969;-85
2022/12/08 06:38:56;;;;;;;2.45;1.17;;;;;;;4.49;63.82;99759.59;4485051;31;33623;-83
2022/12/08 06:41:25;;;;;;;2.53;2.30;;;;;;;4.53;63.70;99767.34;4467708;31;32931;-84
2022/12/08 06:43:57;;;;;;;;;;;;;;;4.49;63.97;99770.03;4469987;31;32738;-83
2022/12/08 06:46:26;;;;;;;1.30;1.20;;;;;;;4.34;64.54;99779.91;4468294;31;32272;-83
2022/12/08 06:48:54;;;;;;;0.57;0.57;;;;;;;4.53;64.15;99762.13;4484666;31;34466;-84
2022/12/08 06:51:22;;;;;;;0.43;0.43;;;;;;;4.43;64.30;99776.25;4471746;31;33734;-84
2022/12/08 06:53:56;;;;;;;0.28;0.17;;;;;;;4.29;64.83;99770.44;4478516;31;32603;-84
2022/12/08 06:56:26;;;;;;;0.57;0.57;;;;;;;4.46;64.48;99773.56;4485220;31;34209;-83
2022/12/08 06:58:55;;;;;;;0.98;0.90;;;;;;;4.50;64.26;99766.53;4482722;31;34202;-84
2022/12/08 07:01:29;;;;;;;1.25;1.15;;;;;;;4.42;64.92;99779.78;4489317;31;33073;-84
2022/12/08 07:03:58;;;;;;;1.30;1.25;;;;;;;4.50;64.65;99771.75;4484289;31;34423;-84
2022/12/08 07:06:27;;;;;;;2.95;2.67;;;;;;;4.68;64.15;99776.62;4469985;31;33662;-83
2022/12/08 07:08:55;;;;;;;4.20;3.90;;;;;;;4.75;64.01;99773.03;4482239;31;33094;-83
2022/12/08 07:11:24;;;;;;;3.00;1.55;;;;;;;4.69;64.32;99782.72;4469404;31;34139;-83
2022/12/08 07:13:55;;;;;;;3.58;1.90;;;;;;;4.62;64.47;99782.00;4471329;31;32897;-82
2022/12/08 07:16:24;;;;;;;0.82;0.82;;;;;;;4.60;64.53;99775.91;4470940;31;32619;-83
2022/12/08 07:18:53;;;;;;;0.98;0.98;;;;;;;4.74;64.13;99776.50;4453101;31;33388;-83
2022/12/08 07:21:21;;;;;;;1.52;1.42;;;;;;;4.66;64.48;99773.19;4480648;31;34636;-84
2022/12/08 07:23:50;;;;;;;1.58;1.48;;;;;;;4.66;64.82;99770.59;4456617;31;33871;-83
2022/12/08 07:26:25;;;;;;;2.03;1.92;;;;;;;4.76;64.58;99769.50;4469031;31;33386;-83
2022/12/08 07:28:54;;;;;;;3.40;2.90;;;;;;;4.85;64.58;99769.31;4469191;31;32220;-83
2022/12/08 07:31:27;;;;;;;0.75;0.75;;;;;;;4.97;64.49;99762.09;4468255;31;33759;-83
2022/12/08 07:33:59;;;;;;;3.85;3.65;;;;;;;5.03;64.43;99767.19;4471461;31;32421;-84
2022/12/08 07:36:28;;;;;;;4.45;3.33;;;;;;;4.78;64.96;99772.06;4467173;31;33314;-83
2022/12/08 07:38:56;;;;;;;3.12;2.65;;;;;;;4.98;64.97;99771.66;4466861;32;33381;-83
2022/12/08 07:41:32;;;;;;;0.85;0.85;;;;;;;5.11;64.52;99760.88;4467876;31;33147;-85
2022/12/08 07:44:03;;;;;;;2.70;2.60;;;;;;;5.07;64.99;99753.12;4481725;31;34000;-83
2022/12/08 07:46:36;;;;;;;1.08;1.08;;;;;;;5.05;65.44;99754.94;4458821;31;32589;-82
2022/12/08 07:49:04;;;;;;;5.87;2.35;;;;;;;5.23;65.25;99754.53;4466220;31;32783;-83
2022/12/08 07:51:33;;;;;;;8.13;3.25;;;;;;;5.29;65.19;99749.16;4467534;31;32955;-83
2022/12/08 07:54:01;;;;;;;6.43;3.05;;;;;;;5.34;65.04;99756.91;4467153;31;33720;-82
2022/12/08 07:56:29;;;;;;;4.12;3.72;;;;;;;5.51;64.88;99756.53;4473770;31;34174;-87
2022/12/08 07:58:58;;;;;;;4.50;4.18;;;;;;;5.57;64.87;99758.97;4467078;31;34551;-86
2022/12/08 08:01:30;;;;;;;2.05;1.95;;;;;;;5.63;64.88;99761.44;4460973;32;34446;-87
2022/12/08 08:04:06;;;;;;;2.67;2.00;;;;;;;5.68;64.85;99761.34;4469620;31;34770;-86
2022/12/08 08:06:36;;;;;;;4.22;2.85;;;;;;;5.94;64.22;99752.88;4488859;31;33457;-85
2022/12/08 08:09:05;;;;;;;2.35;2.25;;;;;;;5.93;64.04;99754.59;4458199;31;33588;-85
2022/12/08 08:11:33;;;;;;;7.90;2.58;;;;;;;5.93;64.33;99753.75;4484657;31;33612;-85
2022/12/08 08:14:02;;;;;;;2.00;1.90;;;;;;;5.95;64.27;99755.44;4473472;31;34862;-85
2022/12/08 08:16:30;;;;;;;0.93;0.93;;;;;;;6.04;64.19;99756.97;4471291;32;32242;-85
2022/12/08 08:19:05;;;;;;;1.58;1.48;;;;;;;6.19;63.84;99746.06;4483244;31;33672;-85
2022/12/08 08:21:33;;;;;;;1.15;1.12;;;;;;;6.23;63.15;99749.50;4485639;31;34069;-85
2022/12/08 08:24:12;;;;;;;1.00;1.00;;;;;;;6.05;63.65;99746.44;4486196;31;33711;-85
2022/12/08 08:26:41;;;;;;;1.77;1.67;;;;;;;6.21;63.15;99752.13;4478816;31;33780;-85
2022/12/08 08:29:09;;;;;;;3.75;2.12;;;;;;;6.03;63.84;99750.00;4467614;31;34531;-85
2022/12/08 08:31:38;;;;;;;1.83;1.73;;;;;;;6.28;63.04;99747.59;4470421;31;33483;-85
2022/12/08 08:34:07;;;;;;;1.58;1.55;;;;;;;6.36;63.13;99746.50;4481447;31;31986;-84
2022/12/08 08:36:36;;;;;;;8.32;4.03;;;;;;;6.56;61.96;99753.81;4485408;31;33046;-86
2022/12/08 08:39:06;;;;;;;2.87;2.67;;;;;;;6.53;62.50;99747.78;4472820;31;33585;-86
2022/12/08 08:41:37;;;;;;;9.52;5.15;;;;;;;6.30;62.44;99741.41;4464742;31;34625;-86
2022/12/08 08:44:07;;;;;;;4.60;2.83;;;;;;;6.09;63.46;99753.31;4470836;31;34447;-87
2022/12/08 08:46:42;;;;;;;6.20;3.10;;;;;;;5.96;63.88;99749.28;4469971;31;36400;-86
2022/12/08 08:49:10;;;;;;;4.95;4.12;;;;;;;6.19;63.47;99748.69;4480283;31;32642;-86
2022/12/08 08:51:40;;;;;;;2.05;1.95;;;;;;;6.16;63.82;99744.38;4456559;31;32804;-86
2022/12/08 08:54:08;;;;;;;5.75;2.72;;;;;;;6.14;63.81;99735.72;4468074;31;32816;-86
2022/12/08 08:56:37;;;;;;;4.68;2.90;;;;;;;6.22;64.45;99732.00;4452291;31;32153;-86
2022/12/08 08:59:05;;;;;;;1.30;1.27;;;;;;;6.35;63.47;99739.50;4468276;31;33974;-87
2022/12/08 09:01:35;;;;;;;3.28;1.55;;;;;;;6.31;63.54;99737.88;4466954;31;31954;-86
2022/12/08 09:04:03;;;;;;;4.05;3.65;;;;;;;6.31;63.67;99744.88;4467329;31;33025;-86
2022/12/08 09:06:33;;;;;;;2.10;2.00;;;;;;;6.26;63.83;99747.63;4456947;31;34011;-86
2022/12/08 09:09:03;;;;;;;5.50;2.15;;;;;;;6.47;63.38;99738.31;4463916;32;33612;-87
2022/12/08 09:11:32;;;;;;;5.80;4.90;;;;;;;6.08;64.48;99728.03;4462714;31;33306;-86
2022/12/08 09:14:00;;;;;;;5.53;2.40;;;;;;;6.28;64.20;99721.38;4466819;31;33780;-87
2022/12/08 09:16:29;;;;;;;2.95;2.70;;;;;;;6.37;64.14;99731.63;4466155;31;33123;-85
2022/12/08 09:18:59;;;;;;;2.97;2.12;;;;;;;6.70;62.88;99728.94;4464485;32;33463;-86
2022/12/08 09:21:29;;;;;;;2.33;2.12;;;;;;;6.84;62.09;99743.38;4446452;31;33327;-86
2022/12/08 09:23:57;;;;;;;1.60;1.55;;;;;;;6.63;62.77;99741.37;4482579;31;33848;-86
2022/12/08 09:26:30;;;;;;;3.87;3.58;;;;;;;6.67;63.29;99740.38;4477608;31;32739;-86
2022/12/08 09:29:04;;;;;;;2.45;2.05;;;;;;;6.72;62.07;99732.38;4453655;31;33108;-87
2022/12/08 09:31:34;;;;;;;1.27;1.27;;;;;;;6.89;62.13;99720.47;4479901;31;33928;-86
2022/12/08 09:34:04;;;;;;;3.10;2.08;;;;;;;6.82;61.80;99724.19;4476593;31;33505;-86
2022/12/08 09:36:33;;;;;;;3.53;2.80;;;;;;;6.81;61.98;99711.97;4484015;31;32429;-87
2022/12/08 09:39:03;;;;;;;1.35;1.35;;;;;;;6.71;61.88;99709.66;4477942;31;33558;-87
2022/12/08 09:41:36;;;;;;;0.50;0.50;;;;;;;6.78;61.06;99688.44;4479845;31;33302;-86
2022/12/08 09:44:43;;;;;;;3.03;2.72;;;;;;;6.60;60.49;99695.09;4468276;31;32607;-87
2022/12/08 09:47:17;;;;;;;2.12;1.95;;;;;;;6.47;58.99;99703.37;4467444;31;32671;-87
2022/12/08 09:49:54;;;;;;;1.35;1.25;;;;;;;6.14;60.45;99704.25;4461503;31;33837;-86
2022/12/08 09:52:41;;;;;;;1.85;1.75;;;;;;;6.26;60.46;99696.94;4457722;31;34162;-87
2022/12/08 09:55:16;;;;;;;3.22;2.72;;;;;;;6.03;59.24;99705.44;4466161;31;32273;-86
2022/12/08 09:57:51;;;;;;;3.10;2.83;;;;;;;6.48;59.30;99687.56;4479120;31;31338;-87
2022/12/08 10:00:24;;;;;;;1.30;1.27;;;;;;;6.07;60.35;99691.34;4472010;31;34450;-87
2022/12/08 10:02:54;;;;;;;1.73;1.62;;;;;;;6.68;58.73;99689.59;4459657;31;33213;-87
2022/12/08 10:05:24;;;;;;;1.75;1.65;;;;;;;6.55;57.71;99698.75;4451806;31;31099;-87
2022/12/08 10:08:11;;;;;;;2.55;1.35;;;;;;;6.58;57.37;99688.16;4482798;31;32998;-86
2022/12/08 10:10:46;;;;;;;1.17;0.80;;;;;;;6.26;58.82;99694.31;4470100;31;33815;-87
2022/12/08 10:13:47;;;;;;;1.98;1.87;;;;;;;6.41;57.82;99696.53;4472175;31;33212;-87
2022/12/08 10:16:26;;;;;;;2.05;1.95;;;;;;;6.32;56.94;99692.41;4471484;31;33916;-87
2022/12/08 10:19:12;;;;;;;2.65;0.98;;;;;;;6.68;56.31;99687.84;4459947;31;32252;-86
2022/12/08 10:21:41;;;;;;;3.60;2.42;;;;;;;6.51;57.53;99687.50;4450645;31;33266;-87
2022/12/08 10:24:23;;;;;;;0.68;0.60;;;;;;;6.76;57.47;99677.12;4469996;31;33720;-87
2022/12/08 10:26:57;;;;;;;0.80;0.80;;;;;;;6.91;55.73;99670.56;4470147;31;33777;-86
2022/12/08 10:29:26;;;;;;;3.25;1.25;;;;;;;6.60;56.94;99665.37;4447677;31;33794;-87
2022/12/08 10:31:56;;;;;;;1.55;1.42;;;;;;;6.19;58.72;99672.66;4466511;31;33400;-85
2022/12/08 10:34:29;;;;;;;2.33;2.22;;;;;;;6.83;57.29;99655.03;4464052;31;33355;-86
2022/12/08 10:36:59;;;;;;;0.47;0.47;;;;;;;6.86;57.58;99652.31;4466979;31;33472;-86
2022/12/08 10:39:31;;;;;;;;;;;;;;;6.76;57.32;99653.50;4474351;31;32391;-86
2022/12/08 10:42:20;;;;;;;0.13;0.13;;;;;;;6.94;56.74;99644.22;4482135;31;33306;-85
2022/12/08 10:45:08;;;;;;;2.62;2.42;;;;;;;6.54;57.70;99642.78;4471428;31;32678;-86
2022/12/08 10:47:38;;;;;;;1.95;1.75;;;;;;;6.84;56.00;99627.03;4477220;31;31830;-86
2022/12/08 10:50:23;;;;;;;0.45;0.45;;;;;;;6.68;57.29;99622.25;4459173;31;30076;-87
2022/12/08 10:52:58;;;;;;;5.60;2.10;;;;;;;6.72;56.87;99623.03;4452945;31;33588;-87
2022/12/08 10:55:27;;;;;;;1.30;1.17;;;;;;;6.57;55.90;99620.87;4488277;31;33774;-85
2022/12/08 10:57:56;;;;;;;1.92;1.70;;;;;;;6.37;57.06;99617.09;4467401;31;34089;-85
2022/12/08 11:00:27;;;;;;;2.83;2.62;;;;;;;6.55;56.76;99617.41;4483337;31;33363;-86
2022/12/08 11:02:57;;;;;;;3.13;2.93;;;;;;;6.57;57.25;99605.13;4482527;31;33733;-86
2022/12/08 11:05:31;;;;;;;0.65;0.65;;;;;;;6.94;56.31;99596.97;4470596;31;33000;-86
2022/12/08 11:08:01;;;;;;;1.60;1.50;;;;;;;6.99;55.42;99588.94;4468992;31;32435;-85
2022/12/08 11:10:35;;;;;;;3.03;1.65;;;;;;;7.01;55.84;99592.38;4470362;31;32958;-87
2022/12/08 11:13:05;;;;;;;1.45;1.42;;;;;;;6.95;54.93;99585.56;4482125;31;32846;-87
2022/12/08 11:18:26;;;;;;;1.83;1.52;;;;;;;6.52;57.08;99572.94;4485353;31;34382;-87
2022/12/08 11:20:57;;;;;;;6.90;2.83;;;;;;;6.60;56.08;99560.44;4478268;31;33338;-86
2022/12/08 11:23:28;;;;;;;12.45;2.67;;;;;;;6.87;55.43;99556.06;4476167;31;34422;-87
2022/12/08 11:26:03;;;;;;;0.70;0.70;;;;;;;7.00;55.36;99549.50;4470843;31;33887;-86
2022/12/08 11:28:36;;;;;;;0.77;0.77;;;;;;;6.58;56.27;99541.25;4481665;31;34782;-87
2022/12/08 11:31:29;;;;;;;0.45;0.45;;;;;;;6.48;57.27;99540.69;4469196;31;29989;-87
2022/12/08 11:33:59;;;;;;;1.40;1.37;;;;;;;6.79;56.69;99535.34;4474032;31;33018;-87
2022/12/08 11:36:31;;;;;;;0.37;0.37;;;;;;;6.93;56.08;99535.75;4469882;31;34808;-87
2022/12/08 11:39:02;;;;;;;3.53;2.10;;;;;;;6.89;56.55;99528.87;4479920;31;33511;-87
2022/12/08 11:41:41;;;;;;;0.65;0.65;;;;;;;6.72;56.41;99533.81;4470699;31;33516;-87
2022/12/08 11:44:40;;;;;;;1.75;1.65;;;;;;;6.95;55.05;99524.34;4461619;31;32858;-86
2022/12/08 11:47:19;;;;;;;0.00;0.00;;;;;;;6.80;55.20;99521.31;4468139;31;33891;-87
2022/12/08 11:50:01;;;;;;;2.25;2.05;;;;;;;6.86;55.10;99522.88;4477985;31;33404;-87
2022/12/08 11:52:33;;;;;;;1.30;1.20;;;;;;;6.80;55.20;99521.31;4467452;32;34045;-86
2022/12/08 11:55:36;;;;;;;0.20;0.20;;;;;;;7.04;55.02;99517.00;4467260;31;33396;-86
2022/12/08 11:58:17;;;;;;;1.87;1.55;;;;;;;7.53;54.23;99514.44;4470019;31;33434;-86
2022/12/08 12:00:45;;;;;;;1.98;1.87;;;;;;;7.29;54.75;99509.12;4462843;31;33388;-87
2022/12/08 12:03:22;;;;;;;1.40;1.10;;;;;;;7.21;54.36;99511.16;4467976;31;32646;-87
2022/12/08 12:06:14;;;;;;;0.75;0.75;;;;;;;6.65;55.12;99512.16;4453228;31;33827;-86
2022/12/08 12:09:05;;;;;;;0.30;0.30;;;;;;;6.95;54.87;99503.34;4480502;31;33722;-86
2022/12/08 12:15:18;;;;;;;1.20;1.10;;;;;;;6.97;54.74;99512.00;4470257;31;32826;-86